»·PEaware :: N171MA KLAX-KSNA

N171MA :: KLAX-KSNA

FLIGHT INFORMATION

Flight Status: Arrived
Operator: Privately registered:
United States
More flights under this callsign
Pilot: Tim M. (868)
Aircraft: CESSNA 172 SKYHAWK
(C172)
More flights by this aircraft type
Origin: KLAX Los Angeles Intl
United States
Destination: KSNA John Wayne-Orange Co
United States
More flights between these airports :: More routes between these airports
Route: SLI8 SLI
File this flight plan on PilotEdge
Remarks: I-6
Altitude:
(Current/Filed)
4,000ft
Speed:
(Current/Filed)
110kts
Departed: 26-Nov-19 08:34 PM
Arrived: 26-Nov-19 09:17 PM
Distance/Time
Traveled:
31nm/0:43
Distance/Time
To Go:
Arrived

Flight Plot

Page will automatically refresh every two minutes.

Flight plan parsing failed; only flown route is shown


Map Options




Map Legend


Flown Route
Filed Route
Departure Airport
Arrival Airport
Navaid (VOR, NDB)
Fix

Horizontal Profiles

Position Reports

Time Latitude Longitude Heading Altitude Ground
Speed
26-Nov-19 20:10 33.932737 -118.397682 304 109ft 0kts
26-Nov-19 20:11 33.932737 -118.397682 304 109ft 0kts
26-Nov-19 20:11 33.932737 -118.397682 304 109ft 0kts
26-Nov-19 20:13 33.932737 -118.397682 304 109ft 0kts
26-Nov-19 20:13 33.932737 -118.397682 304 109ft 0kts
26-Nov-19 20:14 33.932737 -118.397682 304 109ft 0kts
26-Nov-19 20:16 33.932737 -118.397682 304 109ft 0kts
26-Nov-19 20:16 33.932737 -118.397682 304 109ft 0kts
26-Nov-19 20:17 33.932737 -118.397682 304 109ft 0kts
26-Nov-19 20:18 33.932737 -118.397682 304 109ft 0kts
26-Nov-19 20:19 33.932737 -118.397682 304 109ft 0kts
26-Nov-19 20:20 33.932737 -118.397682 304 109ft 0kts
26-Nov-19 20:21 33.932737 -118.397682 304 109ft 0kts
26-Nov-19 20:22 33.932737 -118.397682 304 109ft 0kts
26-Nov-19 20:23 33.932737 -118.397682 304 109ft 0kts
26-Nov-19 20:24 33.932737 -118.397682 304 109ft 0kts
26-Nov-19 20:25 33.932835 -118.397757 347 109ft 4kts
26-Nov-19 20:26 33.934562 -118.397819 90 109ft 13kts
26-Nov-19 20:27 33.935135 -118.392667 74 109ft 9kts
26-Nov-19 20:28 33.935487 -118.389060 84 109ft 11kts
26-Nov-19 20:29 33.935908 -118.384855 80 109ft 13kts
26-Nov-19 20:30 33.936184 -118.382548 322 109ft 0kts
26-Nov-19 20:31 33.936402 -118.382725 341 109ft 0kts
26-Nov-19 20:32 33.936560 -118.382767 353 109ft 1kts
26-Nov-19 20:33 33.936452 -118.391042 263 338ft 61kts
26-Nov-19 20:34 33.934877 -118.413475 267 1243ft 64kts
26-Nov-19 20:35 33.933636 -118.435995 265 2025ft 72kts
26-Nov-19 20:36 33.918592 -118.451213 215 2829ft 75kts
26-Nov-19 20:37 33.900826 -118.462210 178 3591ft 74kts
26-Nov-19 20:38 33.881906 -118.446192 146 3997ft 103kts
26-Nov-19 20:39 33.856828 -118.423376 146 3980ft 109kts
26-Nov-19 20:40 33.833980 -118.402328 146 3985ft 99kts
26-Nov-19 20:41 33.812330 -118.382302 146 3987ft 98kts
26-Nov-19 20:42 33.788731 -118.360624 146 3988ft 112kts
26-Nov-19 20:43 33.781719 -118.324609 90 3985ft 116kts
26-Nov-19 20:44 33.782212 -118.285927 92 3986ft 114kts
26-Nov-19 20:45 33.782283 -118.247774 92 3988ft 115kts
26-Nov-19 20:46 33.782273 -118.209664 92 3985ft 115kts
26-Nov-19 20:47 33.786314 -118.171761 96 4006ft 112kts
26-Nov-19 20:48 33.783961 -118.133937 95 4007ft 112kts
26-Nov-19 20:49 33.782655 -118.096073 94 4006ft 113kts
26-Nov-19 20:50 33.786145 -118.058227 67 4009ft 116kts
26-Nov-19 20:51 33.798760 -118.022459 65 4007ft 116kts
26-Nov-19 20:52 33.810271 -117.986438 73 4009ft 116kts
26-Nov-19 20:53 33.822615 -117.950587 66 4007ft 115kts
26-Nov-19 20:54 33.837009 -117.915536 64 4009ft 116kts
26-Nov-19 20:55 33.851813 -117.880645 66 4006ft 117kts
26-Nov-19 20:56 33.865637 -117.844937 66 4010ft 117kts
26-Nov-19 20:57 33.879505 -117.809462 66 4007ft 116kts
26-Nov-19 20:58 33.893401 -117.773825 67 4006ft 116kts
26-Nov-19 20:59 33.906411 -117.738509 66 4028ft 114kts
26-Nov-19 21:00 33.927772 -117.712943 357 3698ft 118kts
26-Nov-19 21:01 33.958501 -117.712803 355 3516ft 106kts
26-Nov-19 21:02 33.952520 -117.702647 194 3497ft 96kts
26-Nov-19 21:03 33.928577 -117.714208 204 3510ft 92kts
26-Nov-19 21:04 33.904199 -117.726095 199 3379ft 83kts
26-Nov-19 21:05 33.882983 -117.737913 206 3431ft 83kts
26-Nov-19 21:06 33.862205 -117.751327 210 3389ft 92kts
26-Nov-19 21:07 33.841078 -117.765387 211 3412ft 85kts
26-Nov-19 21:08 33.820916 -117.777242 212 3153ft 76kts
26-Nov-19 21:09 33.802593 -117.788420 211 2769ft 73kts
26-Nov-19 21:10 33.785247 -117.799933 211 2416ft 75kts
26-Nov-19 21:11 33.765530 -117.812505 214 1866ft 95kts
26-Nov-19 21:12 33.745434 -117.824707 202 1329ft 84kts
26-Nov-19 21:13 33.725624 -117.837166 209 1056ft 81kts
26-Nov-19 21:14 33.705591 -117.849884 210 630ft 77kts
26-Nov-19 21:15 33.686646 -117.861894 212 217ft 76kts
26-Nov-19 21:16 33.675787 -117.869149 262 60ft 8kts
26-Nov-19 21:17 33.675797 -117.870259 232 60ft 0kts
26-Nov-19 21:18 33.675750 -117.871160 210 60ft 0kts
26-Nov-19 21:21 33.675750 -117.871160 209 60ft 0kts
26-Nov-19 21:22 33.675749 -117.871160 208 60ft 0kts

Navigation Log

Ident Type
Flight plan parsing failed, navigation log unavailable